Time;durP1;ratioP1;P1;durP2;ratioP2;P2;SDS_P1;SDS_P2;PMS_P1;PMS_P2;Temp;Humidity;BMP_temperature;BMP_pressure;BME280_temperature;BME280_humidity;BME280_pressure;Samples;Min_cycle;Max_cycle;Signal;HPM_P1;HPM_P2
2020/12/31 00:02:13;;;;;;;4.93;3.90;;;3.20;99.90;;;;;;4838537;29;20557;-87
2020/12/31 00:04:39;;;;;;;3.70;3.17;;;3.00;99.90;;;;;;4838278;29;20439;-86
2020/12/31 00:07:05;;;;;;;3.80;3.50;;;3.00;99.90;;;;;;4839991;29;20496;-87
2020/12/31 00:09:31;;;;;;;4.37;3.37;;;2.90;99.90;;;;;;4855797;29;20573;-87
2020/12/31 00:11:57;;;;;;;4.40;4.00;;;2.80;99.90;;;;;;4842316;29;20446;-87
2020/12/31 00:14:24;;;;;;;7.30;6.00;;;2.70;99.90;;;;;;4842882;29;20451;-86
2020/12/31 00:16:55;;;;;;;9.00;6.93;;;2.60;99.90;;;;;;4837556;29;20207;-87
2020/12/31 00:19:20;;;;;;;7.50;6.40;;;2.50;99.90;;;;;;4842416;29;20449;-87
2020/12/31 00:21:47;;;;;;;7.97;6.63;;;2.50;99.90;;;;;;4839001;29;20866;-85
2020/12/31 00:24:13;;;;;;;5.73;4.57;;;2.40;99.90;;;;;;4837163;29;20200;-87
2020/12/31 00:26:39;;;;;;;4.60;4.20;;;2.40;99.90;;;;;;4840310;29;20483;-87
2020/12/31 00:29:04;;;;;;;4.07;3.60;;;2.40;99.90;;;;;;4839972;29;20254;-87
2020/12/31 00:31:30;;;;;;;3.70;3.40;;;2.40;99.90;;;;;;4840330;29;20742;-85
2020/12/31 00:33:56;;;;;;;3.67;3.37;;;2.40;99.90;;;;;;4837453;29;20207;-84
2020/12/31 00:36:21;;;;;;;3.47;3.27;;;2.40;99.90;;;;;;4839909;29;20654;-85
2020/12/31 00:38:51;;;;;;;3.70;3.40;;;2.30;99.90;;;;;;4841526;29;20199;-85
2020/12/31 00:41:21;;;;;;;3.70;3.40;;;2.20;99.90;;;;;;4855120;29;20602;-85
2020/12/31 00:43:47;;;;;;;3.93;3.57;;;2.20;99.90;;;;;;4838654;29;20873;-86
2020/12/31 00:46:15;;;;;;;4.00;3.50;;;2.20;99.90;;;;;;4843723;29;20953;-91
2020/12/31 00:48:41;;;;;;;4.00;3.70;;;2.10;99.90;;;;;;4842196;29;20487;-87
2020/12/31 00:51:07;;;;;;;3.30;3.00;;;2.00;99.90;;;;;;4828216;29;20470;-85
2020/12/31 00:53:33;;;;;;;3.77;3.37;;;2.00;99.90;;;;;;4842451;29;21579;-85
2020/12/31 00:55:59;;;;;;;3.97;3.60;;;2.00;99.90;;;;;;4837893;29;21036;-85
2020/12/31 00:58:25;;;;;;;3.13;2.93;;;2.00;99.90;;;;;;4839803;29;20507;-86
2020/12/31 01:00:53;;;;;;;3.50;3.20;;;1.90;99.90;;;;;;4836788;29;20206;-85
2020/12/31 01:03:19;;;;;;;4.10;3.60;;;1.80;99.90;;;;;;4837694;29;20497;-84
2020/12/31 01:05:52;;;;;;;5.00;3.87;;;1.80;99.90;;;;;;4840998;29;20207;-85
2020/12/31 01:08:18;;;;;;;3.67;3.37;;;1.80;99.90;;;;;;4839819;29;20503;-86
2020/12/31 01:10:44;;;;;;;3.13;2.83;;;1.80;99.90;;;;;;4839254;29;20199;-85
2020/12/31 01:13:10;;;;;;;3.23;2.93;;;1.70;99.90;;;;;;4840569;29;20243;-85
2020/12/31 01:15:36;;;;;;;3.63;3.10;;;1.70;99.90;;;;;;4847553;29;20247;-85
2020/12/31 01:18:02;;;;;;;3.17;2.87;;;1.80;99.90;;;;;;4847896;29;20604;-85
2020/12/31 01:20:28;;;;;;;3.60;2.77;;;1.80;99.90;;;;;;4841597;29;20451;-86
2020/12/31 01:22:59;;;;;;;3.23;2.80;;;1.80;99.90;;;;;;4844823;29;20912;-86
2020/12/31 01:25:25;;;;;;;2.73;2.53;;;1.90;99.90;;;;;;4841472;29;20746;-87
2020/12/31 01:27:51;;;;;;;3.07;2.77;;;1.90;99.90;;;;;;4845662;29;20502;-86
2020/12/31 01:30:19;;;;;;;2.93;2.67;;;1.90;99.90;;;;;;4842414;29;20198;-86
2020/12/31 01:32:45;;;;;;;3.13;2.93;;;1.90;99.90;;;;;;4842499;29;20814;-85
2020/12/31 01:35:16;;;;;;;3.70;3.40;;;1.90;99.90;;;;;;4839764;29;20672;-87
2020/12/31 01:37:42;;;;;;;6.67;4.17;;;1.90;99.90;;;;;;4843437;29;20610;-86
2020/12/31 01:40:07;;;;;;;13.37;8.60;;;1.90;99.90;;;;;;4839585;29;20477;-86
2020/12/31 01:42:33;;;;;;;9.73;6.00;;;1.80;99.90;;;;;;4844266;29;20255;-87
2020/12/31 01:44:59;;;;;;;14.87;7.03;;;1.90;99.90;;;;;;4840979;29;20206;-87
2020/12/31 01:47:26;;;;;;;6.63;5.50;;;1.90;99.90;;;;;;4841341;29;20225;-87
2020/12/31 01:49:53;;;;;;;3.93;3.53;;;1.90;99.90;;;;;;4843530;29;20255;-89
2020/12/31 01:52:20;;;;;;;4.03;3.63;;;2.00;99.90;;;;;;4844119;29;20458;-86
2020/12/31 01:54:47;;;;;;;4.17;3.77;;;2.10;99.90;;;;;;4845103;29;20546;-86
2020/12/31 01:57:13;;;;;;;4.83;4.20;;;2.10;99.90;;;;;;4848019;29;20459;-86
2020/12/31 01:59:39;;;;;;;5.37;3.63;;;2.20;99.90;;;;;;4844239;29;20451;-86
2020/12/31 02:02:07;;;;;;;3.73;3.43;;;2.20;99.90;;;;;;4840612;29;20468;-86
2020/12/31 02:04:38;;;;;;;3.40;3.10;;;2.20;99.90;;;;;;4838446;29;20484;-86
2020/12/31 02:07:17;;;;;;;3.23;2.90;;;2.20;99.90;;;;;;4843298;29;20520;-87
2020/12/31 02:09:44;;;;;;;3.73;3.33;;;2.30;99.90;;;;;;4844824;29;20450;-86
2020/12/31 02:12:11;;;;;;;4.10;2.97;;;2.20;99.90;;;;;;4861713;29;20459;-86
2020/12/31 02:14:50;;;;;;;3.70;3.40;;;2.30;99.90;;;;;;4844363;29;20452;-86
2020/12/31 02:17:19;;;;;;;4.50;3.37;;;2.20;99.90;;;;;;4840805;29;20448;-86
2020/12/31 02:19:44;;;;;;;3.30;3.00;;;2.20;99.90;;;;;;4841468;29;20534;-87
2020/12/31 02:22:11;;;;;;;3.30;3.00;;;2.20;99.90;;;;;;4841781;29;20538;-87
2020/12/31 02:24:40;;;;;;;3.13;2.83;;;2.20;99.90;;;;;;4840707;29;20198;-87
2020/12/31 02:27:06;;;;;;;3.50;3.10;;;2.10;99.90;;;;;;4841577;29;20766;-86
2020/12/31 02:29:32;;;;;;;3.57;3.27;;;2.20;99.90;;;;;;4841116;29;20467;-87
2020/12/31 02:31:58;;;;;;;3.50;3.07;;;2.10;99.90;;;;;;4846840;29;20458;-87
2020/12/31 02:34:25;;;;;;;4.13;3.73;;;2.10;99.90;;;;;;4842090;29;20439;-86
2020/12/31 02:36:52;;;;;;;3.47;3.17;;;2.10;99.90;;;;;;4845051;29;20186;-87
2020/12/31 02:39:17;;;;;;;3.13;2.77;;;2.10;99.90;;;;;;4843361;29;20447;-87
2020/12/31 02:41:44;;;;;;;5.07;3.20;;;2.00;99.90;;;;;;4842406;29;20471;-87
2020/12/31 02:44:10;;;;;;;3.30;3.00;;;2.00;99.90;;;;;;4843642;29;20460;-86
2020/12/31 02:46:36;;;;;;;3.20;2.90;;;2.00;99.90;;;;;;4838764;29;20475;-87
2020/12/31 02:49:02;;;;;;;3.40;3.10;;;2.10;99.90;;;;;;4841808;29;20492;-87
2020/12/31 02:51:28;;;;;;;3.57;3.27;;;2.10;99.90;;;;;;4839069;29;20448;-87
2020/12/31 02:53:54;;;;;;;3.30;3.10;;;2.00;99.90;;;;;;4842071;29;20463;-88
2020/12/31 02:56:21;;;;;;;3.40;3.10;;;2.10;99.90;;;;;;4840594;29;20199;-87
2020/12/31 02:58:47;;;;;;;4.20;3.00;;;2.10;99.90;;;;;;4843467;29;20206;-87
2020/12/31 03:01:14;;;;;;;3.60;2.90;;;2.00;99.90;;;;;;4842936;29;20458;-88
2020/12/31 03:03:42;;;;;;;3.63;3.33;;;1.90;99.90;;;;;;4843940;29;20502;-87
2020/12/31 03:06:08;;;;;;;3.93;3.50;;;1.80;99.90;;;;;;4842669;29;20546;-87
2020/12/31 03:08:35;;;;;;;3.50;2.97;;;1.80;99.90;;;;;;4844421;29;20506;-88
2020/12/31 03:11:00;;;;;;;3.77;3.47;;;1.60;99.90;;;;;;4842622;29;20459;-88
2020/12/31 03:13:27;;;;;;;2.87;2.67;;;1.50;99.90;;;;;;4838299;29;20487;-88
2020/12/31 03:15:54;;;;;;;3.50;3.20;;;1.50;99.90;;;;;;4840494;29;20182;-88
2020/12/31 03:18:20;;;;;;;3.37;3.03;;;1.40;99.90;;;;;;4839999;29;20456;-87
2020/12/31 03:20:47;;;;;;;4.00;3.57;;;1.20;99.90;;;;;;4853851;29;20569;-88
2020/12/31 03:23:13;;;;;;;3.43;3.13;;;1.00;99.90;;;;;;4836709;29;21029;-88
2020/12/31 03:25:40;;;;;;;3.30;3.10;;;1.00;99.90;;;;;;4843222;29;20508;-87
2020/12/31 03:28:07;;;;;;;3.50;3.20;;;0.90;99.90;;;;;;4839526;29;20999;-87
2020/12/31 03:30:33;;;;;;;3.90;3.60;;;0.80;99.90;;;;;;4836435;29;20444;-87
2020/12/31 03:32:59;;;;;;;3.13;2.80;;;0.70;99.90;;;;;;4847612;29;20664;-87
2020/12/31 03:35:26;;;;;;;2.93;2.73;;;0.70;99.90;;;;;;4842541;29;20448;-87
2020/12/31 03:37:51;;;;;;;3.17;2.67;;;0.60;99.90;;;;;;4841550;29;20436;-87
2020/12/31 03:40:18;;;;;;;3.97;2.63;;;0.60;99.90;;;;;;4847326;29;20432;-88
2020/12/31 03:42:44;;;;;;;3.93;2.80;;;0.50;99.90;;;;;;4843666;29;20452;-87
2020/12/31 03:45:11;;;;;;;3.70;3.00;;;0.50;99.90;;;;;;4843665;29;20447;-86
2020/12/31 03:47:37;;;;;;;3.53;2.77;;;0.50;99.90;;;;;;4846940;29;20230;-87
2020/12/31 03:50:06;;;;;;;4.23;3.17;;;0.50;99.90;;;;;;4840929;29;20996;-88
2020/12/31 03:52:32;;;;;;;5.17;2.90;;;0.40;99.90;;;;;;4840681;29;20187;-87
2020/12/31 03:54:58;;;;;;;3.47;3.17;;;0.40;99.90;;;;;;4838512;29;20803;-88
2020/12/31 03:57:24;;;;;;;3.23;2.93;;;0.20;99.90;;;;;;4840287;29;20473;-87
2020/12/31 03:59:49;;;;;;;3.67;2.93;;;0.20;99.90;;;;;;4841328;29;20199;-87
2020/12/31 04:02:15;;;;;;;3.80;3.30;;;0.20;99.90;;;;;;4842687;29;20186;-86
2020/12/31 04:04:41;;;;;;;3.17;2.73;;;0.10;99.90;;;;;;4839923;29;20203;-86
2020/12/31 04:07:06;;;;;;;3.57;3.27;;;0.00;99.90;;;;;;4838488;29;20206;-87
2020/12/31 04:09:32;;;;;;;2.93;2.63;;;0.00;99.90;;;;;;4845148;29;20221;-87
2020/12/31 04:11:59;;;;;;;2.70;2.50;;;0.00;99.90;;;;;;4844077;29;20229;-87
2020/12/31 04:14:25;;;;;;;3.50;3.07;;;0.00;99.90;;;;;;4857966;29;20273;-87
2020/12/31 04:16:51;;;;;;;3.70;2.57;;;0.00;99.90;;;;;;4839281;29;20447;-87
2020/12/31 04:19:16;;;;;;;3.13;2.83;;;0.00;99.90;;;;;;4846779;29;20452;-87
2020/12/31 04:21:44;;;;;;;2.83;2.63;;;-0.10;99.90;;;;;;4839448;29;20514;-87
2020/12/31 04:24:10;;;;;;;3.50;3.20;;;-0.10;99.90;;;;;;4846037;29;20213;-87
2020/12/31 04:26:35;;;;;;;3.10;2.80;;;-0.10;99.90;;;;;;4838701;29;20463;-86
2020/12/31 04:29:02;;;;;;;4.67;4.07;;;-0.10;99.90;;;;;;4841625;29;20631;-86
2020/12/31 04:31:28;;;;;;;4.20;3.67;;;-0.10;99.90;;;;;;4840186;29;20553;-88
2020/12/31 04:33:54;;;;;;;3.83;3.00;;;-0.20;99.90;;;;;;4843909;29;20459;-86
2020/12/31 04:36:19;;;;;;;3.70;3.40;;;-0.20;99.90;;;;;;4857511;29;20231;-87
2020/12/31 04:38:45;;;;;;;6.40;5.80;;;-0.20;99.90;;;;;;4836517;29;20195;-86
2020/12/31 04:41:12;;;;;;;4.87;4.40;;;-0.10;99.90;;;;;;4836712;29;20538;-86
2020/12/31 04:43:38;;;;;;;5.00;4.60;;;-0.10;99.90;;;;;;4835048;29;20199;-86
2020/12/31 04:46:09;;;;;;;3.90;3.50;;;-0.10;99.90;;;;;;4840692;29;20466;-86
2020/12/31 04:48:42;;;;;;;3.80;3.17;;;-0.10;99.90;;;;;;4845806;29;20562;-86
2020/12/31 04:51:12;;;;;;;2.70;2.50;;;-0.10;99.90;;;;;;4848481;29;20463;-86
2020/12/31 04:53:44;;;;;;;2.60;2.43;;;0.00;99.90;;;;;;4862605;29;20450;-86
2020/12/31 04:56:12;;;;;;;3.20;2.90;;;0.00;99.90;;;;;;4850533;29;20474;-87
2020/12/31 04:58:37;;;;;;;2.63;2.43;;;0.00;99.90;;;;;;4835468;29;20474;-86
2020/12/31 05:01:03;;;;;;;3.00;2.57;;;-0.10;99.90;;;;;;4849948;29;20806;-86
2020/12/31 05:03:29;;;;;;;3.10;2.57;;;-0.20;99.90;;;;;;4848363;29;20206;-86
2020/12/31 05:05:56;;;;;;;3.50;2.70;;;-0.30;99.90;;;;;;4862663;29;20226;-87
2020/12/31 05:08:32;;;;;;;3.27;2.50;;;-0.30;99.90;;;;;;4846853;29;20225;-87
2020/12/31 05:10:58;;;;;;;4.00;2.17;;;-0.30;99.90;;;;;;4844112;29;20455;-86
2020/12/31 05:13:24;;;;;;;3.10;2.67;;;-0.40;99.90;;;;;;4845479;29;20974;-86
2020/12/31 05:15:49;;;;;;;2.37;2.10;;;-0.40;99.90;;;;;;4848725;29;20676;-85
2020/12/31 05:18:26;;;;;;;2.80;2.50;;;-0.40;99.90;;;;;;4854363;29;20290;-87
2020/12/31 05:20:53;;;;;;;1.90;1.80;;;-0.40;99.90;;;;;;4843095;29;20210;-87
2020/12/31 05:23:29;;;;;;;3.50;3.20;;;-0.40;99.90;;;;;;4843999;29;20484;-87
2020/12/31 05:25:56;;;;;;;3.90;3.33;;;-0.40;99.90;;;;;;4842576;29;20558;-86
2020/12/31 05:28:34;;;;;;;3.90;3.07;;;-0.40;99.90;;;;;;4845863;29;20566;-87
2020/12/31 05:31:12;;;;;;;3.40;3.10;;;-0.50;99.90;;;;;;4840649;29;20970;-86
2020/12/31 05:33:42;;;;;;;3.80;2.67;;;-0.40;99.90;;;;;;4846308;29;20469;-87
2020/12/31 05:36:16;;;;;;;4.57;3.47;;;-0.40;99.90;;;;;;4841650;29;20450;-87
2020/12/31 05:38:54;;;;;;;5.57;3.77;;;-0.50;99.90;;;;;;4861139;29;21031;-87
2020/12/31 05:41:21;;;;;;;3.60;3.30;;;-0.50;99.90;;;;;;4843582;29;20457;-87
2020/12/31 05:43:53;;;;;;;4.30;3.40;;;-0.50;99.90;;;;;;4841322;29;20458;-86
2020/12/31 05:46:20;;;;;;;4.67;3.60;;;-0.60;99.90;;;;;;4860637;29;20482;-86
2020/12/31 05:48:55;;;;;;;5.17;3.40;;;-0.60;99.90;;;;;;4844768;29;20486;-87
2020/12/31 05:51:33;;;;;;;3.60;3.00;;;-0.60;99.90;;;;;;4845539;29;20499;-87
2020/12/31 05:54:17;;;;;;;4.43;3.67;;;-0.60;99.90;;;;;;4844185;29;20459;-86
2020/12/31 05:56:44;;;;;;;5.30;3.20;;;-0.60;99.90;;;;;;4842058;29;20480;-86
2020/12/31 05:59:24;;;;;;;5.43;3.77;;;-0.50;99.90;;;;;;4844927;29;20466;-86
2020/12/31 06:02:03;;;;;;;3.97;3.67;;;-0.60;99.90;;;;;;4863345;29;20448;-87
2020/12/31 06:04:28;;;;;;;4.23;3.37;;;-0.60;99.90;;;;;;4842905;29;20553;-87
2020/12/31 06:07:02;;;;;;;4.13;3.53;;;-0.60;99.90;;;;;;4862785;29;20448;-86
2020/12/31 06:09:32;;;;;;;3.67;3.20;;;-0.70;99.90;;;;;;4842482;29;20203;-87
2020/12/31 06:12:14;;;;;;;3.63;3.33;;;-0.70;99.90;;;;;;4846850;29;20467;-86
2020/12/31 06:14:44;;;;;;;4.37;3.97;;;-0.80;99.90;;;;;;4841273;29;20485;-86
2020/12/31 06:17:22;;;;;;;3.93;3.40;;;-0.80;99.90;;;;;;4843688;29;20459;-86
2020/12/31 06:19:59;;;;;;;4.70;3.80;;;-0.70;99.90;;;;;;4843694;29;20484;-86
2020/12/31 06:22:34;;;;;;;4.87;3.50;;;-0.70;99.90;;;;;;4846250;29;20517;-86
2020/12/31 06:25:04;;;;;;;3.93;3.47;;;-0.70;99.90;;;;;;4841460;29;20447;-87
2020/12/31 06:27:40;;;;;;;5.10;3.80;;;-0.70;99.90;;;;;;4843592;29;20474;-86
2020/12/31 06:30:06;;;;;;;4.10;3.27;;;-0.60;99.90;;;;;;4841128;29;20821;-87
2020/12/31 06:32:36;;;;;;;4.60;3.10;;;-0.50;99.90;;;;;;4844445;29;20431;-87
2020/12/31 06:35:03;;;;;;;3.13;2.83;;;-0.50;99.90;;;;;;4845858;29;20472;-87
2020/12/31 06:37:30;;;;;;;5.10;3.40;;;-0.50;99.90;;;;;;4842068;29;20487;-86
2020/12/31 06:40:21;;;;;;;4.60;3.27;;;-0.50;99.90;;;;;;4843788;29;20797;-85
2020/12/31 06:43:06;;;;;;;3.40;3.10;;;-0.40;99.90;;;;;;4847436;29;20455;-86
2020/12/31 06:45:40;;;;;;;3.30;3.00;;;-0.50;99.90;;;;;;4838857;29;20458;-86
2020/12/31 06:48:25;;;;;;;3.93;3.10;;;-0.40;99.90;;;;;;4845525;29;20495;-87
2020/12/31 06:50:57;;;;;;;3.50;3.17;;;-0.40;99.90;;;;;;4844507;29;20456;-86
2020/12/31 06:53:44;;;;;;;3.70;3.30;;;-0.40;99.90;;;;;;4839869;29;20487;-87
2020/12/31 06:56:11;;;;;;;3.70;2.80;;;-0.40;99.90;;;;;;4846665;29;20895;-87
2020/12/31 06:58:37;;;;;;;2.57;2.37;;;-0.30;99.90;;;;;;4839884;29;20459;-88
2020/12/31 07:01:23;;;;;;;4.40;3.47;;;-0.30;99.90;;;;;;4835951;29;20488;-87
2020/12/31 07:03:49;;;;;;;3.40;3.10;;;-0.30;99.90;;;;;;4842093;29;21516;-87
2020/12/31 07:06:21;;;;;;;5.87;4.07;;;-0.30;99.90;;;;;;4844755;29;20522;-87
2020/12/31 07:08:57;;;;;;;4.90;4.20;;;-0.20;99.90;;;;;;4839747;29;20490;-87
2020/12/31 07:11:29;;;;;;;4.80;4.30;;;0.10;99.90;;;;;;4856444;29;20459;-86
2020/12/31 07:13:55;;;;;;;6.03;4.60;;;0.30;99.90;;;;;;4840938;29;22024;-86
2020/12/31 07:16:40;;;;;;;8.00;4.97;;;0.50;99.90;;;;;;4840001;29;20474;-87
2020/12/31 07:19:07;;;;;;;6.90;4.00;;;0.50;99.90;;;;;;4839256;29;20182;-86
2020/12/31 07:21:36;;;;;;;6.70;5.30;;;0.60;99.90;;;;;;4840564;29;20459;-86
2020/12/31 07:24:22;;;;;;;5.97;4.47;;;0.70;99.90;;;;;;4844148;29;20550;-86
2020/12/31 07:26:56;;;;;;;6.97;5.60;;;0.80;99.90;;;;;;4844734;29;20539;-87
2020/12/31 07:29:35;;;;;;;6.30;5.70;;;0.80;99.90;;;;;;4843131;29;20494;-86
2020/12/31 07:32:02;;;;;;;5.97;4.40;;;1.00;99.90;;;;;;4836828;29;20479;-86
2020/12/31 07:34:30;;;;;;;6.20;5.00;;;1.10;99.90;;;;;;4842374;29;20476;-86
2020/12/31 07:37:07;;;;;;;5.57;4.47;;;1.10;99.90;;;;;;4841353;29;20459;-87
2020/12/31 07:39:34;;;;;;;7.37;5.20;;;1.30;99.90;;;;;;4839242;29;20443;-86
2020/12/31 07:42:17;;;;;;;5.90;5.23;;;1.30;99.90;;;;;;4862699;29;20892;-88
2020/12/31 07:44:54;;;;;;;6.90;5.47;;;1.40;99.90;;;;;;4842530;29;20491;-88
2020/12/31 07:47:22;;;;;;;5.80;5.03;;;1.50;99.90;;;;;;4841385;29;20491;-88
2020/12/31 07:49:49;;;;;;;6.80;5.60;;;1.60;99.90;;;;;;4863366;29;20463;-88
2020/12/31 07:52:15;;;;;;;5.87;5.20;;;1.60;99.90;;;;;;4840056;29;20475;-87
2020/12/31 07:54:41;;;;;;;7.03;6.13;;;1.70;99.90;;;;;;4841714;29;20443;-87
2020/12/31 07:57:12;;;;;;;7.83;6.30;;;1.70;99.90;;;;;;4838236;29;20462;-87
2020/12/31 07:59:45;;;;;;;8.83;6.67;;;1.80;99.90;;;;;;4861562;29;20206;-88
2020/12/31 08:02:15;;;;;;;6.70;5.40;;;1.80;99.90;;;;;;4842026;29;20456;-87
2020/12/31 08:04:44;;;;;;;7.27;5.87;;;1.80;99.90;;;;;;4839536;29;20459;-86
2020/12/31 08:07:15;;;;;;;6.17;5.50;;;1.80;99.90;;;;;;4839251;29;20448;-86
2020/12/31 08:09:41;;;;;;;6.70;5.30;;;2.00;99.90;;;;;;4843585;29;20498;-86
2020/12/31 08:12:11;;;;;;;7.43;6.07;;;2.00;99.90;;;;;;4841736;29;20504;-86
2020/12/31 08:14:41;;;;;;;7.50;5.73;;;2.10;99.90;;;;;;4841733;29;20992;-89
2020/12/31 08:17:06;;;;;;;8.60;6.17;;;2.20;99.90;;;;;;4837707;29;20533;-87
2020/12/31 08:19:33;;;;;;;9.53;6.90;;;2.30;99.90;;;;;;4840218;29;20491;-87
2020/12/31 08:22:08;;;;;;;7.40;6.53;;;2.40;99.90;;;;;;4838925;29;20238;-86
2020/12/31 08:24:40;;;;;;;8.20;6.23;;;2.40;99.90;;;;;;4844573;29;20466;-88
2020/12/31 08:27:09;;;;;;;11.70;5.57;;;2.40;99.90;;;;;;4840970;29;20439;-88
2020/12/31 08:29:35;;;;;;;6.50;5.80;;;2.50;99.90;;;;;;4837097;29;20477;-89
2020/12/31 08:32:05;;;;;;;7.00;5.60;;;2.60;99.90;;;;;;4842117;29;20467;-88
2020/12/31 08:34:36;;;;;;;6.33;5.50;;;2.60;99.90;;;;;;4840709;29;20475;-86
2020/12/31 08:37:03;;;;;;;6.63;5.70;;;2.60;99.90;;;;;;4840869;29;20494;-87
2020/12/31 08:39:29;;;;;;;7.17;6.10;;;2.60;99.90;;;;;;4841399;29;20444;-87
2020/12/31 08:42:01;;;;;;;7.40;5.40;;;2.70;99.90;;;;;;4840763;29;20989;-87
2020/12/31 08:44:27;;;;;;;8.00;7.10;;;2.70;99.90;;;;;;4842077;29;20480;-87
2020/12/31 08:46:54;;;;;;;8.40;5.70;;;2.70;99.90;;;;;;4841716;29;20443;-87
2020/12/31 08:49:24;;;;;;;8.30;5.40;;;2.70;99.90;;;;;;4851520;29;20694;-87
2020/12/31 08:51:51;;;;;;;8.83;6.97;;;2.80;99.90;;;;;;4837348;29;20464;-87
2020/12/31 08:54:17;;;;;;;10.67;7.17;;;2.90;99.90;;;;;;4836532;29;20453;-87
2020/12/31 08:56:42;;;;;;;9.20;6.60;;;2.90;99.90;;;;;;4839017;29;20478;-86
2020/12/31 08:59:09;;;;;;;7.90;6.87;;;2.90;99.90;;;;;;4834448;29;20210;-86
2020/12/31 09:01:35;;;;;;;6.90;6.13;;;3.00;99.90;;;;;;4830317;29;20211;-87
2020/12/31 09:04:18;;;;;;;7.27;5.90;;;3.00;99.90;;;;;;4832569;29;20462;-87
2020/12/31 09:06:45;;;;;;;7.90;6.67;;;3.00;99.90;;;;;;4835733;29;20451;-87
2020/12/31 09:09:19;;;;;;;7.93;6.00;;;3.00;99.90;;;;;;4835206;29;20486;-86
2020/12/31 09:12:01;;;;;;;7.57;5.70;;;3.00;99.90;;;;;;4840895;29;20545;-86
2020/12/31 09:14:27;;;;;;;8.53;6.00;;;3.00;99.90;;;;;;4831902;29;20443;-85
2020/12/31 09:16:56;;;;;;;7.73;6.37;;;3.10;99.90;;;;;;4836294;29;20615;-88
2020/12/31 09:19:22;;;;;;;7.80;6.47;;;3.10;99.90;;;;;;4836484;29;20972;-86
2020/12/31 09:21:48;;;;;;;8.43;6.70;;;3.10;99.90;;;;;;4834546;29;20468;-86
2020/12/31 09:24:23;;;;;;;10.70;8.17;;;3.20;99.90;;;;;;4838705;29;20451;-89
2020/12/31 09:26:53;;;;;;;8.00;6.13;;;3.30;99.90;;;;;;4835274;29;20474;-86
2020/12/31 09:29:19;;;;;;;10.63;8.00;;;3.30;99.90;;;;;;4837323;29;20491;-88
2020/12/31 09:31:45;;;;;;;10.97;7.13;;;3.40;99.90;;;;;;4828847;29;20462;-88
2020/12/31 09:34:11;;;;;;;9.47;6.37;;;3.40;99.90;;;;;;4858496;29;20465;-87
2020/12/31 09:36:36;;;;;;;11.73;7.33;;;3.50;99.90;;;;;;4839714;29;20274;-87
2020/12/31 09:39:03;;;;;;;7.83;6.10;;;3.50;99.90;;;;;;4852655;29;20210;-86
2020/12/31 09:41:29;;;;;;;8.03;6.20;;;3.50;99.90;;;;;;4842574;29;20439;-84
2020/12/31 09:43:54;;;;;;;17.63;10.83;;;3.80;99.90;;;;;;4841897;29;20531;-86
2020/12/31 09:46:21;;;;;;;12.00;8.07;;;4.00;99.90;;;;;;4839984;29;20210;-86
2020/12/31 09:48:48;;;;;;;6.87;5.63;;;3.80;99.90;;;;;;4837217;29;20234;-87
2020/12/31 09:51:14;;;;;;;6.03;5.40;;;3.90;99.90;;;;;;4835138;29;21357;-86
2020/12/31 09:53:49;;;;;;;6.63;5.90;;;3.90;99.90;;;;;;4838543;29;20868;-85
2020/12/31 09:56:29;;;;;;;11.80;10.10;;;3.90;99.90;;;;;;4835499;29;20456;-87
2020/12/31 09:58:55;;;;;;;13.90;11.00;;;4.00;99.90;;;;;;4831910;29;20586;-87
2020/12/31 10:01:22;;;;;;;27.83;18.63;;;4.00;99.90;;;;;;4834657;29;20692;-87
2020/12/31 10:03:48;;;;;;;8.13;7.30;;;3.90;99.90;;;;;;4841613;29;20569;-87
2020/12/31 10:06:14;;;;;;;14.03;7.40;;;4.00;99.90;;;;;;4834792;29;20460;-88
2020/12/31 10:08:43;;;;;;;17.90;15.37;;;4.20;99.90;;;;;;4838087;29;20486;-89
2020/12/31 10:11:10;;;;;;;9.17;7.73;;;4.00;99.90;;;;;;4838328;29;20463;-89
2020/12/31 10:13:36;;;;;;;8.20;7.03;;;4.10;99.90;;;;;;4833771;29;20446;-87
2020/12/31 10:16:03;;;;;;;6.83;6.10;;;4.30;99.90;;;;;;4836171;29;20456;-85
2020/12/31 10:18:29;;;;;;;6.47;5.57;;;4.40;99.90;;;;;;4837522;29;20465;-88
2020/12/31 10:20:55;;;;;;;9.17;8.10;;;4.40;99.90;;;;;;4833961;29;20514;-87
2020/12/31 10:23:21;;;;;;;5.20;4.70;;;4.30;99.90;;;;;;4834601;29;21010;-88
2020/12/31 10:25:53;;;;;;;7.10;5.80;;;4.40;99.90;;;;;;4841639;29;20225;-89
2020/12/31 10:28:22;;;;;;;5.77;5.27;;;4.40;99.90;;;;;;4851766;29;20313;-88
2020/12/31 10:30:49;;;;;;;6.13;4.90;;;4.50;99.90;;;;;;4834398;29;20456;-90
2020/12/31 10:33:15;;;;;;;9.57;6.50;;;4.70;99.90;;;;;;4840632;29;21119;-93
2020/12/31 10:35:48;;;;;;;7.40;5.73;;;5.10;99.90;;;;;;4850890;29;20467;-90
2020/12/31 10:38:18;;;;;;;4.57;4.17;;;5.30;99.90;;;;;;4823317;29;21001;-91
2020/12/31 10:40:46;;;;;;;5.27;4.77;;;5.40;99.90;;;;;;4834325;29;21004;-90
2020/12/31 10:43:28;;;;;;;5.97;4.60;;;5.10;99.90;;;;;;4838369;29;20953;-92
2020/12/31 10:45:54;;;;;;;7.23;5.47;;;4.90;99.90;;;;;;4837749;29;20439;-86
2020/12/31 10:48:20;;;;;;;3.90;3.47;;;4.60;99.90;;;;;;4836315;29;20823;-91
2020/12/31 10:50:47;;;;;;;6.57;5.23;;;4.50;99.90;;;;;;4835046;29;20210;-91
2020/12/31 10:53:12;;;;;;;5.73;5.10;;;4.30;99.90;;;;;;4843426;29;20206;-90
2020/12/31 10:55:39;;;;;;;7.47;6.67;;;4.20;99.90;;;;;;4842259;29;20452;-92
2020/12/31 10:58:05;;;;;;;5.20;4.70;;;4.20;99.90;;;;;;4836455;29;20290;-90
2020/12/31 11:00:35;;;;;;;5.03;4.37;;;4.10;99.90;;;;;;4839632;29;20965;-89
2020/12/31 11:03:00;;;;;;;6.00;4.97;;;3.90;99.90;;;;;;4833632;29;20451;-88
2020/12/31 11:05:26;;;;;;;5.93;5.33;;;3.80;99.90;;;;;;4838705;29;20192;-93
2020/12/31 11:07:54;;;;;;;8.23;4.60;;;3.80;99.90;;;;;;4844540;29;20299;-90
2020/12/31 11:10:20;;;;;;;5.07;4.30;;;3.80;99.90;;;;;;4843939;29;20295;-89
2020/12/31 11:12:45;;;;;;;4.70;4.10;;;3.70;99.90;;;;;;4839306;29;20597;-89
2020/12/31 11:15:11;;;;;;;5.10;4.50;;;3.60;99.90;;;;;;4837811;29;20615;-86
2020/12/31 11:17:37;;;;;;;7.20;5.67;;;3.70;99.90;;;;;;4838477;29;20584;-84
2020/12/31 11:20:04;;;;;;;5.57;4.70;;;3.90;99.90;;;;;;4838444;29;20253;-85
2020/12/31 11:22:30;;;;;;;5.80;4.63;;;4.00;99.90;;;;;;4835353;29;21879;-89
2020/12/31 11:24:55;;;;;;;6.40;4.90;;;4.10;99.90;;;;;;4838252;29;20490;-88
2020/12/31 11:27:21;;;;;;;4.17;3.67;;;4.40;99.90;;;;;;4836965;29;21072;-88
2020/12/31 11:29:46;;;;;;;5.93;4.77;;;4.60;99.90;;;;;;4835838;29;20206;-87
2020/12/31 11:32:12;;;;;;;5.63;5.00;;;4.90;99.90;;;;;;4834886;29;20202;-88
2020/12/31 11:34:38;;;;;;;4.87;4.33;;;5.10;99.90;;;;;;4832851;29;20429;-87
2020/12/31 11:37:04;;;;;;;4.63;4.23;;;5.40;99.90;;;;;;4835658;29;20216;-85
2020/12/31 11:39:29;;;;;;;4.43;4.07;;;5.30;99.90;;;;;;4832717;29;20325;-88
2020/12/31 11:41:57;;;;;;;4.30;3.90;;;5.10;99.90;;;;;;4837634;29;20661;-86
2020/12/31 11:44:30;;;;;;;5.00;4.47;;;5.10;99.90;;;;;;4833282;29;20213;-85
2020/12/31 11:46:59;;;;;;;6.33;4.07;;;5.00;99.90;;;;;;4836818;29;20447;-86
2020/12/31 11:49:26;;;;;;;4.80;4.30;;;4.90;99.90;;;;;;4836139;29;20519;-85
2020/12/31 11:51:56;;;;;;;21.03;11.63;;;4.90;99.90;;;;;;4834526;29;20511;-86
2020/12/31 11:54:22;;;;;;;7.30;5.20;;;4.90;99.90;;;;;;4832141;29;20546;-85
2020/12/31 11:56:49;;;;;;;8.90;7.97;;;4.80;99.90;;;;;;4838007;29;20519;-86
2020/12/31 11:59:15;;;;;;;6.73;6.13;;;4.50;99.90;;;;;;4837585;29;20203;-86
2020/12/31 12:01:40;;;;;;;7.50;6.60;;;4.50;99.90;;;;;;4835236;29;20467;-86
2020/12/31 12:04:11;;;;;;;5.77;5.20;;;4.60;99.90;;;;;;4838458;29;20695;-92
2020/12/31 12:06:37;;;;;;;7.50;5.50;;;4.60;99.90;;;;;;4836933;29;20195;-92
2020/12/31 12:09:03;;;;;;;5.70;4.40;;;4.50;99.90;;;;;;4834768;29;20482;-88
2020/12/31 12:11:33;;;;;;;6.37;4.73;;;4.50;99.90;;;;;;4835223;29;20218;-88
2020/12/31 12:13:58;;;;;;;6.77;4.03;;;4.40;99.90;;;;;;4837775;29;20450;-88
2020/12/31 12:16:24;;;;;;;6.93;4.77;;;4.40;99.90;;;;;;4850799;29;20488;-89
2020/12/31 12:18:50;;;;;;;6.20;4.90;;;4.30;99.90;;;;;;4835420;29;20671;-88
2020/12/31 12:21:19;;;;;;;5.13;4.63;;;4.00;99.90;;;;;;4833294;29;20190;-88
2020/12/31 12:23:45;;;;;;;6.73;4.73;;;3.90;99.90;;;;;;4834377;29;20196;-87
2020/12/31 12:26:11;;;;;;;5.80;5.20;;;3.90;99.90;;;;;;4835961;29;20511;-88
2020/12/31 12:28:37;;;;;;;6.10;5.20;;;4.10;99.90;;;;;;4835228;29;20277;-88
2020/12/31 12:31:21;;;;;;;6.27;5.40;;;4.10;99.90;;;;;;4854689;29;20538;-90
2020/12/31 12:33:53;;;;;;;6.50;5.10;;;4.10;99.90;;;;;;4834136;29;20466;-89
2020/12/31 12:36:20;;;;;;;5.53;4.57;;;4.10;99.90;;;;;;4841609;29;20458;-89
2020/12/31 12:38:47;;;;;;;5.97;4.80;;;4.10;99.90;;;;;;4838506;29;20462;-89
2020/12/31 12:41:13;;;;;;;5.40;4.90;;;4.10;99.90;;;;;;4835252;29;20804;-89
2020/12/31 12:43:39;;;;;;;6.17;5.20;;;4.20;99.90;;;;;;4839585;29;20539;-90
2020/12/31 12:46:04;;;;;;;6.13;5.00;;;4.20;99.90;;;;;;4835501;29;21523;-89
2020/12/31 12:48:33;;;;;;;6.57;5.13;;;4.30;99.90;;;;;;4834994;29;20791;-89
2020/12/31 12:51:00;;;;;;;4.63;4.23;;;4.20;99.90;;;;;;4834399;29;20585;-89
2020/12/31 12:53:25;;;;;;;6.17;5.57;;;4.30;99.90;;;;;;4834832;29;20451;-89
2020/12/31 12:55:51;;;;;;;6.93;4.77;;;4.30;99.90;;;;;;4832868;29;20572;-88
2020/12/31 12:58:18;;;;;;;5.83;5.23;;;4.30;99.90;;;;;;4835286;29;20773;-89
2020/12/31 13:00:43;;;;;;;5.57;4.83;;;4.30;99.90;;;;;;4832279;29;20549;-89
2020/12/31 13:03:09;;;;;;;5.70;5.10;;;4.30;99.90;;;;;;4833475;29;20524;-89